createdAt,value
2023-05-18T00:01:23.338Z,54.00
2023-05-18T00:03:50.381Z,54.10
2023-05-18T00:06:17.895Z,54.10
2023-05-18T00:08:45.491Z,54.20
2023-05-18T00:11:12.688Z,54.30
2023-05-18T00:13:40.140Z,54.30
2023-05-18T00:16:07.430Z,54.40
2023-05-18T00:18:34.528Z,54.40
2023-05-18T00:21:02.404Z,54.50
2023-05-18T00:23:30.907Z,54.70
2023-05-18T00:25:59.568Z,54.90
2023-05-18T00:28:27.086Z,55.10
2023-05-18T00:30:55.164Z,55.20
2023-05-18T00:33:22.724Z,55.20
2023-05-18T00:35:50.797Z,55.20
2023-05-18T00:38:18.301Z,55.20
2023-05-18T00:40:45.562Z,55.40
2023-05-18T00:43:12.842Z,55.50
2023-05-18T00:45:42.173Z,55.60
2023-05-18T00:48:09.191Z,56.00
2023-05-18T00:50:36.697Z,56.20
2023-05-18T00:53:03.832Z,56.60
2023-05-18T00:55:31.496Z,56.70
2023-05-18T00:58:02.448Z,56.90
2023-05-18T01:02:57.715Z,57.10
2023-05-18T01:05:24.895Z,57.30
2023-05-18T01:07:56.608Z,57.50
2023-05-18T01:10:23.750Z,57.70
2023-05-18T01:12:56.625Z,57.90
2023-05-18T01:15:26.215Z,58.10
2023-05-18T01:18:10.818Z,58.20
2023-05-18T01:20:50.073Z,58.30
2023-05-18T01:23:35.667Z,58.60
2023-05-18T01:26:30.169Z,58.70
2023-05-18T01:29:02.003Z,58.80
2023-05-18T01:31:30.194Z,58.80
2023-05-18T01:33:57.455Z,58.70
2023-05-18T01:36:24.549Z,58.90
2023-05-18T01:38:55.957Z,59.00
2023-05-18T01:41:26.671Z,59.10
2023-05-18T01:44:15.826Z,59.90
2023-05-18T01:47:14.800Z,59.40
2023-05-18T01:50:03.367Z,59.80
2023-05-18T01:52:37.639Z,59.80
2023-05-18T01:55:06.533Z,59.80
2023-05-18T01:57:36.921Z,59.80
2023-05-18T02:00:08.288Z,60.00
2023-05-18T02:02:45.180Z,60.30
2023-05-18T02:05:15.119Z,60.60
2023-05-18T02:07:44.292Z,60.90
2023-05-18T02:10:12.061Z,61.10
2023-05-18T02:12:39.522Z,61.40
2023-05-18T02:15:07.843Z,61.50
2023-05-18T02:17:39.374Z,61.50
2023-05-18T02:20:08.400Z,61.70
2023-05-18T02:22:37.078Z,62.00
2023-05-18T02:25:07.789Z,62.10
2023-05-18T02:27:36.680Z,62.30
2023-05-18T02:30:05.388Z,62.50
2023-05-18T02:32:38.459Z,62.50
2023-05-18T02:35:07.400Z,62.80
2023-05-18T02:37:40.111Z,62.90
2023-05-18T02:40:10.759Z,63.00
2023-05-18T02:42:37.754Z,62.80
2023-05-18T02:45:06.034Z,62.80
2023-05-18T02:47:33.902Z,62.80
2023-05-18T02:50:01.390Z,62.60
2023-05-18T02:52:30.337Z,62.80
2023-05-18T02:54:57.402Z,62.80
2023-05-18T02:57:43.350Z,63.00
2023-05-18T03:00:11.888Z,63.10
2023-05-18T03:02:40.436Z,63.10
2023-05-18T03:05:07.964Z,63.30
2023-05-18T03:07:36.064Z,63.60
2023-05-18T03:10:04.303Z,64.70
2023-05-18T03:12:32.473Z,64.10
2023-05-18T03:14:59.431Z,64.20
2023-05-18T03:17:26.517Z,64.20
2023-05-18T03:19:53.984Z,64.20
2023-05-18T03:22:20.981Z,64.50
2023-05-18T03:24:51.174Z,64.50
2023-05-18T03:27:20.289Z,64.60
2023-05-18T03:29:47.255Z,64.60
2023-05-18T03:32:14.431Z,64.80
2023-05-18T03:34:41.532Z,65.00
2023-05-18T03:37:08.639Z,65.10
2023-05-18T03:39:35.925Z,65.30
2023-05-18T03:42:03.009Z,65.60
2023-05-18T03:44:30.983Z,65.80
2023-05-18T03:46:58.169Z,65.90
2023-05-18T03:49:25.162Z,66.10
2023-05-18T03:51:56.464Z,66.20
2023-05-18T03:54:24.732Z,66.30
2023-05-18T03:56:52.006Z,66.30
2023-05-18T03:59:19.711Z,66.30
2023-05-18T04:01:48.089Z,66.30
2023-05-18T04:04:18.358Z,66.30
2023-05-18T04:06:46.792Z,66.40
2023-05-18T04:09:17.291Z,66.50
2023-05-18T04:11:45.221Z,66.50
2023-05-18T04:14:14.194Z,66.50
2023-05-18T04:16:41.869Z,66.60
2023-05-18T04:19:09.209Z,66.50
2023-05-18T04:21:36.782Z,66.60
2023-05-18T04:24:07.229Z,66.60
2023-05-18T04:26:36.792Z,66.50
2023-05-18T04:29:04.095Z,66.60
2023-05-18T04:31:31.136Z,66.50
2023-05-18T04:33:58.950Z,66.60
2023-05-18T04:36:30.611Z,66.60
2023-05-18T04:38:58.870Z,66.90
2023-05-18T04:41:26.574Z,66.90
2023-05-18T04:43:53.908Z,67.00
2023-05-18T04:46:23.982Z,67.00
2023-05-18T04:48:53.110Z,67.10
2023-05-18T04:51:22.940Z,67.10
2023-05-18T04:53:53.226Z,67.30
2023-05-18T04:56:23.506Z,67.40
2023-05-18T04:58:50.548Z,67.40
2023-05-18T05:01:18.601Z,67.50
2023-05-18T05:03:45.733Z,67.50
2023-05-18T05:06:12.756Z,67.60
2023-05-18T05:08:39.807Z,67.60
2023-05-18T05:11:06.779Z,67.60
2023-05-18T05:13:36.107Z,67.80
2023-05-18T05:16:03.192Z,67.90
2023-05-18T05:18:30.407Z,67.90
2023-05-18T05:20:59.285Z,67.90
2023-05-18T05:23:26.674Z,67.90
2023-05-18T05:25:54.445Z,68.00
2023-05-18T05:28:21.418Z,68.00
2023-05-18T05:30:49.056Z,68.00
2023-05-18T05:33:16.205Z,68.00
2023-05-18T05:35:44.512Z,68.10
2023-05-18T05:38:11.684Z,68.10
2023-05-18T05:40:38.967Z,68.20
2023-05-18T05:43:06.383Z,68.20
2023-05-18T05:45:34.179Z,68.20
2023-05-18T05:48:04.922Z,68.20
2023-05-18T05:50:32.937Z,68.00
2023-05-18T05:53:01.986Z,68.00
2023-05-18T05:55:33.129Z,68.00
2023-05-18T05:58:00.344Z,67.90
2023-05-18T06:00:28.876Z,67.60
2023-05-18T06:03:01.089Z,67.50
2023-05-18T06:05:35.203Z,67.50
2023-05-18T06:08:03.437Z,67.30
2023-05-18T06:10:31.288Z,67.10
2023-05-18T06:12:58.676Z,67.00
2023-05-18T06:15:33.670Z,67.00
2023-05-18T06:18:01.832Z,66.70
2023-05-18T06:20:30.194Z,66.60
2023-05-18T06:22:57.563Z,66.60
2023-05-18T06:25:33.325Z,66.40
2023-05-18T06:28:19.083Z,66.10
2023-05-18T06:30:49.538Z,65.80
2023-05-18T06:33:23.580Z,65.60
2023-05-18T06:35:51.320Z,65.50
2023-05-18T06:38:18.312Z,65.30
2023-05-18T06:40:45.793Z,64.90
2023-05-18T06:43:12.841Z,64.60
2023-05-18T06:45:47.593Z,64.30
2023-05-18T06:48:24.367Z,63.80
2023-05-18T06:50:51.415Z,63.80
2023-05-18T06:53:18.586Z,63.40
2023-05-18T06:55:45.753Z,63.10
2023-05-18T06:58:13.914Z,62.60
2023-05-18T07:00:41.240Z,62.20
2023-05-18T07:03:09.034Z,62.20
2023-05-18T07:05:39.231Z,61.40
2023-05-18T07:08:07.317Z,61.20
2023-05-18T07:10:35.868Z,61.10
2023-05-18T07:13:02.846Z,60.90
2023-05-18T07:15:30.154Z,60.70
2023-05-18T07:17:57.577Z,60.10
2023-05-18T07:20:26.440Z,59.60
2023-05-18T07:22:55.838Z,59.20
2023-05-18T07:25:23.235Z,58.90
2023-05-18T07:27:52.229Z,58.20
2023-05-18T07:30:19.218Z,57.50
2023-05-18T07:32:46.411Z,56.70
2023-05-18T07:35:13.752Z,56.00
2023-05-18T07:37:40.839Z,55.30
2023-05-18T07:40:09.984Z,54.40
2023-05-18T07:42:39.189Z,53.50
2023-05-18T07:45:07.185Z,52.60
2023-05-18T07:47:34.532Z,51.80
2023-05-18T07:50:01.773Z,51.30
2023-05-18T07:52:29.093Z,50.60
2023-05-18T07:54:57.484Z,49.80
2023-05-18T07:57:24.855Z,49.10
2023-05-18T07:59:52.100Z,48.40
2023-05-18T08:02:20.022Z,47.90
2023-05-18T08:04:48.294Z,47.40
2023-05-18T08:07:15.410Z,46.80
2023-05-18T08:09:42.540Z,46.30
2023-05-18T08:12:09.625Z,45.70
2023-05-18T08:14:36.736Z,45.20
2023-05-18T08:17:05.256Z,45.10
2023-05-18T08:19:32.436Z,44.60
2023-05-18T08:21:59.442Z,43.80
2023-05-18T08:24:26.506Z,43.70
2023-05-18T08:26:53.526Z,43.30
2023-05-18T08:29:20.824Z,42.80
2023-05-18T08:31:49.449Z,42.40
2023-05-18T08:34:17.006Z,42.20
2023-05-18T08:36:45.934Z,41.80
2023-05-18T08:39:13.168Z,41.20
2023-05-18T08:42:07.744Z,40.90
2023-05-18T08:44:43.447Z,40.40
2023-05-18T08:47:13.579Z,39.90
2023-05-18T08:49:42.588Z,39.20
2023-05-18T08:52:10.070Z,39.10
2023-05-18T08:54:37.957Z,38.80
2023-05-18T08:57:12.559Z,38.40
2023-05-18T08:59:44.206Z,38.00
2023-05-18T09:02:11.530Z,37.50
2023-05-18T09:04:39.060Z,37.10
2023-05-18T09:07:08.087Z,36.70
2023-05-18T09:09:36.130Z,36.40
2023-05-18T09:12:03.679Z,35.60
2023-05-18T09:14:32.715Z,35.00
2023-05-18T09:17:00.587Z,34.60
2023-05-18T09:19:28.678Z,34.60
2023-05-18T09:21:55.771Z,34.90
2023-05-18T09:24:24.786Z,35.10
2023-05-18T09:26:52.113Z,34.00
2023-05-18T09:29:21.318Z,34.50
2023-05-18T09:31:48.938Z,33.70
2023-05-18T09:34:19.428Z,33.70
2023-05-18T09:36:57.798Z,33.60
2023-05-18T09:39:24.829Z,34.50
2023-05-18T09:41:58.186Z,35.10
2023-05-18T09:44:33.842Z,35.10
2023-05-18T09:47:01.828Z,34.40
2023-05-18T09:49:32.178Z,33.00
2023-05-18T09:52:02.518Z,31.30
2023-05-18T09:54:29.916Z,30.10
2023-05-18T09:57:09.634Z,29.60
2023-05-18T09:59:38.028Z,29.10
2023-05-18T10:02:06.201Z,28.90
2023-05-18T10:04:41.452Z,28.20
2023-05-18T10:07:12.644Z,28.10
2023-05-18T10:09:41.465Z,28.00
2023-05-18T10:12:16.347Z,27.70
2023-05-18T10:14:46.720Z,27.80
2023-05-18T10:17:17.629Z,27.30
2023-05-18T10:19:47.066Z,26.90
2023-05-18T10:22:17.938Z,26.20
2023-05-18T10:24:49.145Z,25.80
2023-05-18T10:27:20.601Z,26.50
2023-05-18T10:29:50.045Z,26.80
2023-05-18T10:32:17.496Z,27.50
2023-05-18T10:34:45.388Z,28.10
2023-05-18T10:37:14.481Z,28.60
2023-05-18T10:39:45.708Z,28.30
2023-05-18T10:42:16.316Z,28.30
2023-05-18T10:44:45.452Z,27.80
2023-05-18T10:47:14.662Z,27.00
2023-05-18T10:49:49.963Z,26.20
2023-05-18T10:52:17.979Z,26.00
2023-05-18T10:54:49.148Z,26.80
2023-05-18T10:57:20.181Z,27.30
2023-05-18T10:59:48.475Z,27.20
2023-05-18T11:02:18.532Z,27.20
2023-05-18T11:04:48.034Z,26.80
2023-05-18T11:07:15.811Z,26.00
2023-05-18T11:09:44.458Z,25.40
2023-05-18T11:12:16.519Z,25.30
2023-05-18T11:14:54.648Z,25.40
2023-05-18T11:17:26.848Z,25.30
2023-05-18T11:20:09.508Z,25.80
2023-05-18T11:22:56.106Z,26.40
2023-05-18T11:25:29.175Z,27.20
2023-05-18T11:28:02.861Z,28.00
2023-05-18T11:30:33.202Z,28.60
2023-05-18T11:33:16.000Z,29.30
2023-05-18T11:35:58.494Z,30.00
2023-05-18T11:38:52.819Z,30.20
2023-05-18T11:41:29.350Z,30.50
2023-05-18T11:44:22.783Z,31.00
2023-05-18T11:46:58.550Z,31.50
2023-05-18T11:49:26.737Z,31.80
2023-05-18T11:52:07.207Z,31.80
2023-05-18T11:54:45.003Z,31.90
2023-05-18T11:57:12.901Z,31.50
2023-05-18T11:59:45.663Z,30.70
2023-05-18T12:02:19.312Z,30.60
2023-05-18T12:04:51.062Z,31.10
2023-05-18T12:07:20.131Z,31.30
2023-05-18T12:09:48.302Z,31.20
2023-05-18T12:12:19.918Z,31.50
2023-05-18T12:14:57.205Z,31.70
2023-05-18T12:17:42.972Z,31.70
2023-05-18T12:20:13.173Z,31.80
2023-05-18T12:22:52.648Z,30.80
2023-05-18T12:25:22.058Z,30.20
2023-05-18T12:27:50.041Z,30.30
2023-05-18T12:30:20.915Z,30.20
2023-05-18T12:32:50.911Z,30.50
2023-05-18T12:35:21.917Z,31.10
2023-05-18T12:37:48.981Z,31.40
2023-05-18T12:40:17.749Z,31.50
2023-05-18T12:42:56.954Z,31.70
2023-05-18T12:45:26.852Z,31.70
2023-05-18T12:47:55.337Z,32.00
2023-05-18T12:50:25.212Z,31.90
2023-05-18T12:52:52.690Z,32.00
2023-05-18T12:55:27.787Z,32.40
2023-05-18T12:58:04.390Z,32.70
2023-05-18T13:00:35.615Z,33.10
2023-05-18T13:03:13.611Z,33.60
2023-05-18T13:05:46.273Z,33.80
2023-05-18T13:08:22.328Z,34.00
2023-05-18T13:11:01.131Z,34.40
2023-05-18T13:13:28.866Z,34.70
2023-05-18T13:15:59.385Z,35.10
2023-05-18T13:18:28.455Z,34.90
2023-05-18T13:20:58.576Z,34.80
2023-05-18T13:23:28.643Z,34.80
2023-05-18T13:25:58.452Z,35.00
2023-05-18T13:28:27.398Z,35.20
2023-05-18T13:30:54.743Z,35.50
2023-05-18T13:33:22.006Z,35.60
2023-05-18T13:35:50.021Z,36.30
2023-05-18T13:38:17.285Z,36.00
2023-05-18T13:40:45.721Z,36.40
2023-05-18T13:43:13.989Z,36.70
2023-05-18T13:45:41.928Z,37.00
2023-05-18T13:48:10.805Z,37.20
2023-05-18T13:50:38.995Z,37.50
2023-05-18T13:53:06.844Z,37.30
2023-05-18T13:55:34.569Z,37.00
2023-05-18T13:58:01.584Z,36.90
2023-05-18T14:00:28.748Z,37.10
2023-05-18T14:02:56.625Z,37.50
2023-05-18T14:05:24.032Z,37.70
2023-05-18T14:07:54.539Z,37.80
2023-05-18T14:10:21.651Z,37.90
2023-05-18T14:12:49.138Z,38.20
2023-05-18T14:15:16.219Z,38.40
2023-05-18T14:17:44.054Z,38.50
2023-05-18T14:20:12.831Z,38.60
2023-05-18T14:22:40.454Z,38.90
2023-05-18T14:25:07.850Z,39.10
2023-05-18T14:27:34.977Z,39.20
2023-05-18T14:30:02.037Z,39.50
2023-05-18T14:32:29.099Z,39.50
2023-05-18T14:34:58.089Z,39.40
2023-05-18T14:37:25.842Z,39.00
2023-05-18T14:39:52.929Z,38.70
2023-05-18T14:42:20.104Z,38.20
2023-05-18T14:44:47.179Z,37.90
2023-05-18T14:47:14.291Z,37.80
2023-05-18T14:49:41.369Z,37.70
2023-05-18T14:52:08.446Z,37.50
2023-05-18T14:54:35.509Z,38.00
2023-05-18T14:57:02.491Z,37.60
2023-05-18T14:59:29.455Z,37.70
2023-05-18T15:01:56.568Z,37.50
2023-05-18T15:04:25.733Z,37.30
2023-05-18T15:06:56.525Z,37.20
2023-05-18T15:09:26.614Z,37.10
2023-05-18T15:11:53.987Z,37.20
2023-05-18T15:14:21.071Z,37.20
2023-05-18T15:16:48.113Z,37.00
2023-05-18T15:19:15.282Z,37.20
2023-05-18T15:21:44.796Z,36.90
2023-05-18T15:24:11.926Z,36.40
2023-05-18T15:26:38.985Z,36.40
2023-05-18T15:29:06.044Z,36.50
2023-05-18T15:31:33.867Z,36.60
2023-05-18T15:34:01.043Z,36.80
2023-05-18T15:36:29.353Z,37.20
2023-05-18T15:38:56.283Z,37.30
2023-05-18T15:41:23.315Z,37.60
2023-05-18T15:43:50.294Z,38.10
2023-05-18T15:46:17.501Z,38.40
2023-05-18T15:48:44.536Z,38.50
2023-05-18T15:51:11.613Z,38.50
2023-05-18T15:53:38.749Z,38.80
2023-05-18T15:56:06.345Z,38.90
2023-05-18T15:58:33.442Z,39.10
2023-05-18T16:01:00.496Z,39.20
2023-05-18T16:03:27.513Z,39.30
2023-05-18T16:05:54.564Z,39.20
2023-05-18T16:08:21.639Z,39.30
2023-05-18T16:10:48.639Z,39.10
2023-05-18T16:13:15.750Z,39.00
2023-05-18T16:15:43.047Z,38.80
2023-05-18T16:18:11.283Z,38.70
2023-05-18T16:20:38.519Z,38.70
2023-05-18T16:23:05.685Z,38.90
2023-05-18T16:25:32.858Z,39.00
2023-05-18T16:27:59.992Z,38.90
2023-05-18T16:30:27.074Z,39.40
2023-05-18T16:32:54.083Z,39.10
2023-05-18T16:35:21.257Z,39.30
2023-05-18T16:37:48.188Z,38.90
2023-05-18T16:40:15.817Z,38.70
2023-05-18T16:42:47.145Z,38.80
2023-05-18T16:45:14.205Z,39.30
2023-05-18T16:47:41.174Z,39.50
2023-05-18T16:50:08.713Z,39.30
2023-05-18T16:52:35.671Z,39.30
2023-05-18T16:55:02.627Z,39.50
2023-05-18T16:57:30.172Z,39.30
2023-05-18T16:59:57.155Z,39.50
2023-05-18T17:02:24.429Z,39.70
2023-05-18T17:04:51.675Z,39.70
2023-05-18T17:07:18.878Z,39.90
2023-05-18T17:09:45.861Z,40.20
2023-05-18T17:12:12.906Z,40.40
2023-05-18T17:14:39.973Z,40.60
2023-05-18T17:17:07.824Z,40.80
2023-05-18T17:19:35.341Z,40.70
2023-05-18T17:22:03.634Z,40.70
2023-05-18T17:24:30.887Z,40.50
2023-05-18T17:26:58.388Z,40.60
2023-05-18T17:29:25.502Z,40.80
2023-05-18T17:31:52.628Z,40.80
2023-05-18T17:34:19.860Z,41.10
2023-05-18T17:36:46.948Z,41.20
2023-05-18T17:39:16.364Z,41.50
2023-05-18T17:41:43.949Z,41.30
2023-05-18T17:44:14.591Z,41.50
2023-05-18T17:46:42.347Z,41.40
2023-05-18T17:49:09.497Z,41.60
2023-05-18T17:51:36.704Z,41.80
2023-05-18T17:54:04.305Z,41.90
2023-05-18T17:56:31.803Z,42.10
2023-05-18T17:58:59.277Z,42.40
2023-05-18T18:01:27.679Z,42.40
2023-05-18T18:03:55.787Z,42.40
2023-05-18T18:06:23.463Z,42.40
2023-05-18T18:08:54.716Z,42.30
2023-05-18T18:11:22.376Z,42.40
2023-05-18T18:13:50.248Z,42.30
2023-05-18T18:16:18.489Z,42.40
2023-05-18T18:18:45.974Z,42.70
2023-05-18T18:21:13.086Z,42.70
2023-05-18T18:23:40.718Z,42.70
2023-05-18T18:26:08.519Z,42.60
2023-05-18T18:28:35.787Z,42.50
2023-05-18T18:31:03.496Z,42.70
2023-05-18T18:33:32.603Z,43.20
2023-05-18T18:35:59.688Z,42.80
2023-05-18T18:38:29.454Z,42.90
2023-05-18T18:41:01.334Z,42.90
2023-05-18T18:43:28.779Z,42.90
2023-05-18T18:45:57.262Z,42.90
2023-05-18T18:48:25.554Z,43.00
2023-05-18T18:50:53.366Z,43.20
2023-05-18T18:53:20.624Z,43.20
2023-05-18T18:55:47.984Z,43.40
2023-05-18T18:58:15.181Z,43.50
2023-05-18T19:00:42.282Z,43.70
2023-05-18T19:03:16.247Z,44.10
2023-05-18T19:05:43.287Z,44.20
2023-05-18T19:08:10.302Z,44.70
2023-05-18T19:10:37.450Z,45.10
2023-05-18T19:13:07.193Z,45.50
2023-05-18T19:15:35.062Z,45.70
2023-05-18T19:18:03.121Z,46.70
2023-05-18T19:20:30.445Z,46.30
2023-05-18T19:22:57.526Z,46.40
2023-05-18T19:25:25.678Z,46.50
2023-05-18T19:27:53.526Z,46.50
2023-05-18T19:30:22.354Z,46.60
2023-05-18T19:32:53.470Z,46.80
2023-05-18T19:35:22.035Z,47.10
2023-05-18T19:37:49.509Z,47.40
2023-05-18T19:40:16.885Z,47.40
2023-05-18T19:42:44.092Z,47.60
2023-05-18T19:45:11.126Z,47.50
2023-05-18T19:47:38.210Z,47.60
2023-05-18T19:50:06.253Z,47.80
2023-05-18T19:52:33.831Z,48.00
2023-05-18T19:55:02.070Z,48.00
2023-05-18T19:57:29.538Z,48.20
2023-05-18T19:59:57.866Z,48.20
2023-05-18T20:02:25.157Z,48.40
2023-05-18T20:04:53.571Z,48.10
2023-05-18T20:07:20.757Z,48.00
2023-05-18T20:09:47.954Z,47.90
2023-05-18T20:12:14.951Z,47.90
2023-05-18T20:14:43.496Z,47.90
2023-05-18T20:17:10.633Z,47.60
2023-05-18T20:19:37.884Z,47.30
2023-05-18T20:22:05.276Z,47.10
2023-05-18T20:24:32.721Z,47.00
2023-05-18T20:26:59.953Z,47.00
2023-05-18T20:29:27.149Z,47.30
2023-05-18T20:31:55.151Z,47.70
2023-05-18T20:34:22.316Z,47.70
2023-05-18T20:36:49.319Z,48.00
2023-05-18T20:39:16.306Z,48.10
2023-05-18T20:41:43.354Z,48.20
2023-05-18T20:44:11.287Z,48.60
2023-05-18T20:46:42.341Z,48.80
2023-05-18T20:49:12.266Z,48.80
2023-05-18T20:51:39.387Z,48.90
2023-05-18T20:54:06.417Z,49.20
2023-05-18T20:56:34.125Z,49.30
2023-05-18T20:59:01.220Z,49.40
2023-05-18T21:01:28.923Z,50.00
2023-05-18T21:03:59.313Z,50.60
2023-05-18T21:06:26.650Z,50.80
2023-05-18T21:08:53.662Z,51.00
2023-05-18T21:11:21.212Z,51.20
2023-05-18T21:13:48.212Z,51.40
2023-05-18T21:16:15.402Z,51.50
2023-05-18T21:18:42.603Z,51.50
2023-05-18T21:21:09.683Z,51.50
2023-05-18T21:23:36.741Z,51.60
2023-05-18T21:26:03.820Z,51.70
2023-05-18T21:28:30.951Z,51.80
2023-05-18T21:30:57.942Z,52.00
2023-05-18T21:33:25.224Z,52.20
2023-05-18T21:35:52.317Z,52.40
2023-05-18T21:38:19.240Z,52.50
2023-05-18T21:40:46.847Z,52.60
2023-05-18T21:43:13.920Z,52.90
2023-05-18T21:45:41.224Z,52.80
2023-05-18T21:48:08.432Z,52.90
2023-05-18T21:50:35.770Z,52.90
2023-05-18T21:53:03.582Z,53.00
2023-05-18T21:55:33.266Z,53.50
2023-05-18T21:58:00.618Z,54.30
2023-05-18T22:00:28.530Z,53.90
2023-05-18T22:02:56.112Z,54.10
2023-05-18T22:05:23.163Z,54.20
2023-05-18T22:07:50.345Z,54.30
2023-05-18T22:10:18.228Z,54.50
2023-05-18T22:12:45.522Z,54.30
2023-05-18T22:15:13.214Z,54.10
2023-05-18T22:17:40.469Z,54.00
2023-05-18T22:20:11.576Z,54.30
2023-05-18T22:22:40.481Z,54.50
2023-05-18T22:25:08.069Z,54.20
2023-05-18T22:27:36.871Z,54.40
2023-05-18T22:30:06.379Z,54.50
2023-05-18T22:32:33.547Z,54.50
2023-05-18T22:35:01.440Z,54.40
2023-05-18T22:37:28.439Z,54.50
2023-05-18T22:39:55.648Z,54.70
2023-05-18T22:42:22.666Z,54.70
2023-05-18T22:44:49.837Z,54.70
2023-05-18T22:47:23.495Z,54.80
2023-05-18T22:49:50.860Z,55.00
2023-05-18T22:52:18.543Z,54.80
2023-05-18T22:54:45.916Z,54.80
2023-05-18T22:57:13.330Z,55.00
2023-05-18T22:59:40.365Z,54.80
2023-05-18T23:02:07.610Z,54.80
2023-05-18T23:04:34.952Z,55.10
2023-05-18T23:07:04.157Z,55.50
2023-05-18T23:09:31.378Z,55.70
2023-05-18T23:12:01.247Z,55.60
2023-05-18T23:14:31.257Z,55.90
2023-05-18T23:16:58.503Z,56.10
2023-05-18T23:19:28.924Z,56.00
2023-05-18T23:21:56.592Z,56.00
2023-05-18T23:24:23.599Z,56.30
2023-05-18T23:26:50.704Z,56.40
2023-05-18T23:29:17.796Z,56.60
2023-05-18T23:31:44.903Z,56.70
2023-05-18T23:34:12.198Z,56.60
2023-05-18T23:36:42.798Z,56.80
2023-05-18T23:39:10.615Z,56.80
2023-05-18T23:41:38.308Z,56.70
2023-05-18T23:44:06.510Z,56.50
2023-05-18T23:46:34.500Z,56.70
2023-05-18T23:49:01.942Z,56.70
2023-05-18T23:51:33.487Z,56.70
2023-05-18T23:54:01.230Z,56.80
2023-05-18T23:56:28.984Z,56.90
2023-05-18T23:58:56.652Z,57.10
